Becker, MN (55308)

8:05 PM CST on February 23, 2017 (GMT -0600)
Becker-PW | | Change Station

Elev 974 ft 45.41 °N, 93.90 °W | Updated 3 minutes ago

Overcast
Overcast
28.9 °F
Feels Like 21 °F
N
8.1
Wind Variable Wind from NNW
Gusts 21.2 mph

Today
High -- | Low -- °F
--% Chance of Precip.
Yesterday
High -- | Low -- °F
Precip. -- in
Pressure 29.93 in
Visibility 10.0 miles
Clouds Overcast 10000 ft
Windchill 21 °F
Dew Point 23 °F
Humidity 77%
Rainfall 0.00 in
Snow Depth Not available.
7:03 AM 5:54 PM
Waning Crescent, 7% visible
METAR KMGG 240153Z AUTO 01010G14KT 10SM OVC100 M02/M04 A2993 RMK AO2 T10171041
Pressure 29.93 in
Visibility 10.0 miles
Clouds Overcast 10000 ft
Windchill 21 °F
Dew Point 23 °F
Humidity 77%
Rainfall 0.00 in
Snow Depth Not available.
7:03 AM 5:54 PM
Waning Crescent, 7% visible
METAR KMGG 240153Z AUTO 01010G14KT 10SM OVC100 M02/M04 A2993 RMK AO2 T10171041

Get Your Daily Forecast Email!

Thanks for signing up!

Be on the lookout for a verification email in your inbox.

You'll start receiving the daily forecast at 8 AM.

×

10-Day Weather Forecast

Almanac

Astronomy

Feb. 23, 2017 Rise Set
Actual Time
Civil Twilight
Nautical Twilight
Astronomical Twilight
Moon
Length of Visible Light
Length of Day
Tomorrow will be .
, % of the Moon is Illuminated

Today's Extremes

State Highs State Lows

Community

WunderPhotos

Upload Photos

1,962,540 photos uploaded!

WunderBlog® & News

Nearby

Air Quality

  Air Quality AQ Index Pollutant
Not available.

Snow Depth

Station Depth Elevation

Earthquake Activity

City Distance Mag. Time & Date
Minimum magnitude displayed is 2.5.

Coastal Water Temperatures

Place Temperature

Stations

Nearby Weather Stations

Station Location Temp. Windchill Dew Point Humidity Wind Precip. Elev Updated Type
                   

Watches & Warnings

There are currently no watches in effect.